Terminal Aerodrome Forecast
Issued by NWS Duluth, MN

Home | Current Version | Previous Version | Text Only | Print | Product List | Glossary Off
Versions: 1 2 3 4 5 6 7 8 9 10 11 12 13 14 15 16 17 18 19 20 21 22 23 24 25 26 27 28 29 30 31 32 33 34 35 36 37

000
FTUS43 KDLH 231100 RRA
TAFDLH
TAF
KDLH 231144Z 2312/2412 06005KT P6SM BKN008 OVC012
      TEMPO 2312/2313 1SM BR OVC006
     FM231500 08009KT P6SM BKN008
     FM231800 09010KT P6SM BKN012 OVC025
      TEMPO 2322/2401 P6SM SCT013 OVC035
     FM240100 09012KT 5SM BR BKN012
     FM240500 10012KT 2SM BR OVC008
     FM240900 12014KT 1SM BR OVC006=

USA.gov is the U.S. government's official web portal to all federal, state and local government web resources and services.